sensor_id;sensor_type;location;lat;lon;timestamp;P1;durP1;ratioP1;P2;durP2;ratioP2
65665;SDS011;52365;47.464;18.976;2023-03-23T00:00:31;9.85;;;6.00;;
65665;SDS011;52365;47.464;18.976;2023-03-23T00:01:08;8.68;;;5.68;;
65665;SDS011;52365;47.464;18.976;2023-03-23T00:01:46;8.95;;;5.85;;
65665;SDS011;52365;47.464;18.976;2023-03-23T00:02:25;8.18;;;5.32;;
65665;SDS011;52365;47.464;18.976;2023-03-23T00:03:02;9.00;;;5.35;;
65665;SDS011;52365;47.464;18.976;2023-03-23T00:03:39;8.35;;;5.50;;
65665;SDS011;52365;47.464;18.976;2023-03-23T00:04:16;7.62;;;5.32;;
65665;SDS011;52365;47.464;18.976;2023-03-23T00:04:52;8.45;;;5.60;;
65665;SDS011;52365;47.464;18.976;2023-03-23T00:05:29;9.10;;;5.70;;
65665;SDS011;52365;47.464;18.976;2023-03-23T00:06:05;8.45;;;5.50;;
65665;SDS011;52365;47.464;18.976;2023-03-23T00:06:41;7.78;;;5.30;;
65665;SDS011;52365;47.464;18.976;2023-03-23T00:07:19;7.72;;;5.32;;
65665;SDS011;52365;47.464;18.976;2023-03-23T00:08:03;8.13;;;5.55;;
65665;SDS011;52365;47.464;18.976;2023-03-23T00:08:39;8.45;;;5.20;;
65665;SDS011;52365;47.464;18.976;2023-03-23T00:09:20;9.23;;;6.00;;
65665;SDS011;52365;47.464;18.976;2023-03-23T00:10:00;11.35;;;6.32;;
65665;SDS011;52365;47.464;18.976;2023-03-23T00:10:38;10.90;;;6.87;;
65665;SDS011;52365;47.464;18.976;2023-03-23T00:11:15;13.88;;;8.02;;
65665;SDS011;52365;47.464;18.976;2023-03-23T00:11:54;10.80;;;6.90;;
65665;SDS011;52365;47.464;18.976;2023-03-23T00:12:32;12.88;;;8.50;;
65665;SDS011;52365;47.464;18.976;2023-03-23T00:13:08;13.27;;;8.55;;
65665;SDS011;52365;47.464;18.976;2023-03-23T00:13:47;12.43;;;8.10;;
65665;SDS011;52365;47.464;18.976;2023-03-23T00:14:28;11.93;;;7.57;;
65665;SDS011;52365;47.464;18.976;2023-03-23T00:15:16;13.68;;;8.68;;
65665;SDS011;52365;47.464;18.976;2023-03-23T00:15:52;12.18;;;8.30;;
65665;SDS011;52365;47.464;18.976;2023-03-23T00:16:30;13.50;;;8.02;;
65665;SDS011;52365;47.464;18.976;2023-03-23T00:17:08;15.80;;;9.05;;
65665;SDS011;52365;47.464;18.976;2023-03-23T00:17:46;14.50;;;9.15;;
65665;SDS011;52365;47.464;18.976;2023-03-23T00:18:22;14.82;;;9.38;;
65665;SDS011;52365;47.464;18.976;2023-03-23T00:19:03;13.48;;;8.80;;
65665;SDS011;52365;47.464;18.976;2023-03-23T00:19:41;14.75;;;9.57;;
65665;SDS011;52365;47.464;18.976;2023-03-23T00:20:23;16.73;;;9.25;;
65665;SDS011;52365;47.464;18.976;2023-03-23T00:20:59;16.15;;;9.60;;
65665;SDS011;52365;47.464;18.976;2023-03-23T00:21:36;14.45;;;9.65;;
65665;SDS011;52365;47.464;18.976;2023-03-23T00:22:14;15.23;;;9.65;;
65665;SDS011;52365;47.464;18.976;2023-03-23T00:22:52;15.80;;;9.80;;
65665;SDS011;52365;47.464;18.976;2023-03-23T00:23:28;16.85;;;10.40;;
65665;SDS011;52365;47.464;18.976;2023-03-23T00:24:45;14.80;;;9.15;;
65665;SDS011;52365;47.464;18.976;2023-03-23T00:25:21;15.35;;;9.30;;
65665;SDS011;52365;47.464;18.976;2023-03-23T00:25:57;16.23;;;9.57;;
65665;SDS011;52365;47.464;18.976;2023-03-23T00:26:33;14.75;;;8.90;;
65665;SDS011;52365;47.464;18.976;2023-03-23T00:27:10;16.45;;;9.65;;
65665;SDS011;52365;47.464;18.976;2023-03-23T00:27:50;15.55;;;9.40;;
65665;SDS011;52365;47.464;18.976;2023-03-23T00:28:26;13.23;;;8.60;;
65665;SDS011;52365;47.464;18.976;2023-03-23T00:29:03;15.30;;;9.27;;
65665;SDS011;52365;47.464;18.976;2023-03-23T00:29:40;13.82;;;8.70;;
65665;SDS011;52365;47.464;18.976;2023-03-23T00:30:17;13.73;;;8.25;;
65665;SDS011;52365;47.464;18.976;2023-03-23T00:30:57;13.45;;;8.27;;
65665;SDS011;52365;47.464;18.976;2023-03-23T00:31:37;14.93;;;9.20;;
65665;SDS011;52365;47.464;18.976;2023-03-23T00:32:13;15.05;;;9.48;;
65665;SDS011;52365;47.464;18.976;2023-03-23T00:32:49;15.77;;;9.18;;
65665;SDS011;52365;47.464;18.976;2023-03-23T00:33:27;13.68;;;9.20;;
65665;SDS011;52365;47.464;18.976;2023-03-23T00:34:04;13.93;;;8.88;;
65665;SDS011;52365;47.464;18.976;2023-03-23T00:34:41;14.52;;;8.90;;
65665;SDS011;52365;47.464;18.976;2023-03-23T00:35:19;16.33;;;9.35;;
65665;SDS011;52365;47.464;18.976;2023-03-23T00:35:55;16.27;;;9.70;;
65665;SDS011;52365;47.464;18.976;2023-03-23T00:36:32;14.93;;;9.65;;
65665;SDS011;52365;47.464;18.976;2023-03-23T00:37:10;16.05;;;9.70;;
65665;SDS011;52365;47.464;18.976;2023-03-23T00:37:46;15.23;;;9.50;;
65665;SDS011;52365;47.464;18.976;2023-03-23T00:38:23;13.90;;;8.98;;
65665;SDS011;52365;47.464;18.976;2023-03-23T00:39:01;14.80;;;9.32;;
65665;SDS011;52365;47.464;18.976;2023-03-23T00:39:38;13.48;;;8.98;;
65665;SDS011;52365;47.464;18.976;2023-03-23T00:40:20;14.85;;;9.13;;
65665;SDS011;52365;47.464;18.976;2023-03-23T00:40:56;14.07;;;9.40;;
65665;SDS011;52365;47.464;18.976;2023-03-23T00:41:32;13.93;;;8.90;;
65665;SDS011;52365;47.464;18.976;2023-03-23T00:42:15;11.27;;;8.23;;
65665;SDS011;52365;47.464;18.976;2023-03-23T00:42:52;14.30;;;8.65;;
65665;SDS011;52365;47.464;18.976;2023-03-23T00:43:28;13.75;;;8.95;;
65665;SDS011;52365;47.464;18.976;2023-03-23T00:44:05;14.68;;;9.48;;
65665;SDS011;52365;47.464;18.976;2023-03-23T00:44:44;15.30;;;9.20;;
65665;SDS011;52365;47.464;18.976;2023-03-23T00:45:20;12.88;;;8.63;;
65665;SDS011;52365;47.464;18.976;2023-03-23T00:45:57;14.77;;;9.60;;
65665;SDS011;52365;47.464;18.976;2023-03-23T00:46:36;14.07;;;8.80;;
65665;SDS011;52365;47.464;18.976;2023-03-23T00:47:20;13.52;;;8.95;;
65665;SDS011;52365;47.464;18.976;2023-03-23T00:47:56;13.18;;;8.70;;
65665;SDS011;52365;47.464;18.976;2023-03-23T00:48:38;14.07;;;8.68;;
65665;SDS011;52365;47.464;18.976;2023-03-23T00:49:20;16.80;;;10.10;;
65665;SDS011;52365;47.464;18.976;2023-03-23T00:50:03;16.65;;;10.23;;
65665;SDS011;52365;47.464;18.976;2023-03-23T00:50:40;15.85;;;9.82;;
65665;SDS011;52365;47.464;18.976;2023-03-23T00:51:17;15.75;;;9.40;;
65665;SDS011;52365;47.464;18.976;2023-03-23T00:51:55;15.45;;;10.05;;
65665;SDS011;52365;47.464;18.976;2023-03-23T00:52:33;16.27;;;10.18;;
65665;SDS011;52365;47.464;18.976;2023-03-23T00:53:09;15.95;;;9.93;;
65665;SDS011;52365;47.464;18.976;2023-03-23T00:53:45;16.05;;;9.60;;
65665;SDS011;52365;47.464;18.976;2023-03-23T00:54:23;17.52;;;9.93;;
65665;SDS011;52365;47.464;18.976;2023-03-23T00:55:00;15.20;;;10.20;;
65665;SDS011;52365;47.464;18.976;2023-03-23T00:55:36;16.02;;;9.80;;
65665;SDS011;52365;47.464;18.976;2023-03-23T00:56:12;16.65;;;10.07;;
65665;SDS011;52365;47.464;18.976;2023-03-23T00:56:49;15.75;;;10.23;;
65665;SDS011;52365;47.464;18.976;2023-03-23T00:57:26;15.27;;;10.10;;
65665;SDS011;52365;47.464;18.976;2023-03-23T00:58:02;17.75;;;10.15;;
65665;SDS011;52365;47.464;18.976;2023-03-23T00:58:39;18.05;;;10.48;;
65665;SDS011;52365;47.464;18.976;2023-03-23T00:59:15;14.85;;;10.30;;
65665;SDS011;52365;47.464;18.976;2023-03-23T00:59:52;16.67;;;10.57;;
65665;SDS011;52365;47.464;18.976;2023-03-23T01:00:28;17.73;;;11.00;;
65665;SDS011;52365;47.464;18.976;2023-03-23T01:01:04;16.58;;;10.70;;
65665;SDS011;52365;47.464;18.976;2023-03-23T01:01:41;16.05;;;10.20;;
65665;SDS011;52365;47.464;18.976;2023-03-23T01:02:17;18.73;;;10.93;;
65665;SDS011;52365;47.464;18.976;2023-03-23T01:02:55;16.30;;;10.38;;
65665;SDS011;52365;47.464;18.976;2023-03-23T01:03:31;16.52;;;10.38;;
65665;SDS011;52365;47.464;18.976;2023-03-23T01:04:07;19.87;;;10.70;;
65665;SDS011;52365;47.464;18.976;2023-03-23T01:04:44;16.23;;;9.85;;
65665;SDS011;52365;47.464;18.976;2023-03-23T01:05:20;14.65;;;10.30;;
65665;SDS011;52365;47.464;18.976;2023-03-23T01:05:56;18.85;;;10.68;;
65665;SDS011;52365;47.464;18.976;2023-03-23T01:06:33;18.23;;;10.27;;
65665;SDS011;52365;47.464;18.976;2023-03-23T01:07:14;17.30;;;10.30;;
65665;SDS011;52365;47.464;18.976;2023-03-23T01:07:53;16.50;;;10.13;;
65665;SDS011;52365;47.464;18.976;2023-03-23T01:08:29;19.30;;;10.20;;
65665;SDS011;52365;47.464;18.976;2023-03-23T01:09:08;16.10;;;10.73;;
65665;SDS011;52365;47.464;18.976;2023-03-23T01:09:52;16.02;;;10.25;;
65665;SDS011;52365;47.464;18.976;2023-03-23T01:10:29;14.45;;;9.70;;
65665;SDS011;52365;47.464;18.976;2023-03-23T01:11:08;16.23;;;10.18;;
65665;SDS011;52365;47.464;18.976;2023-03-23T01:11:44;15.25;;;10.25;;
65665;SDS011;52365;47.464;18.976;2023-03-23T01:12:21;16.60;;;9.65;;
65665;SDS011;52365;47.464;18.976;2023-03-23T01:13:00;17.80;;;10.18;;
65665;SDS011;52365;47.464;18.976;2023-03-23T01:13:36;16.35;;;10.35;;
65665;SDS011;52365;47.464;18.976;2023-03-23T01:14:12;17.10;;;10.53;;
65665;SDS011;52365;47.464;18.976;2023-03-23T01:14:50;16.62;;;10.48;;
65665;SDS011;52365;47.464;18.976;2023-03-23T01:15:27;17.30;;;9.93;;
65665;SDS011;52365;47.464;18.976;2023-03-23T01:16:04;17.42;;;10.40;;
65665;SDS011;52365;47.464;18.976;2023-03-23T01:16:40;17.92;;;10.30;;
65665;SDS011;52365;47.464;18.976;2023-03-23T01:17:16;18.12;;;10.90;;
65665;SDS011;52365;47.464;18.976;2023-03-23T01:17:54;19.30;;;13.20;;
65665;SDS011;52365;47.464;18.976;2023-03-23T01:18:31;23.52;;;14.32;;
65665;SDS011;52365;47.464;18.976;2023-03-23T01:19:07;16.98;;;11.10;;
65665;SDS011;52365;47.464;18.976;2023-03-23T01:19:43;17.02;;;10.55;;
65665;SDS011;52365;47.464;18.976;2023-03-23T01:20:19;15.30;;;10.43;;
65665;SDS011;52365;47.464;18.976;2023-03-23T01:20:55;18.10;;;10.90;;
65665;SDS011;52365;47.464;18.976;2023-03-23T01:21:31;17.12;;;10.90;;
65665;SDS011;52365;47.464;18.976;2023-03-23T01:22:07;19.10;;;10.93;;
65665;SDS011;52365;47.464;18.976;2023-03-23T01:22:44;19.58;;;11.20;;
65665;SDS011;52365;47.464;18.976;2023-03-23T01:23:20;16.75;;;10.77;;
65665;SDS011;52365;47.464;18.976;2023-03-23T01:23:56;16.62;;;10.48;;
65665;SDS011;52365;47.464;18.976;2023-03-23T01:24:32;17.98;;;10.82;;
65665;SDS011;52365;47.464;18.976;2023-03-23T01:25:09;18.55;;;11.27;;
65665;SDS011;52365;47.464;18.976;2023-03-23T01:25:46;16.10;;;10.73;;
65665;SDS011;52365;47.464;18.976;2023-03-23T01:26:23;16.27;;;11.12;;
65665;SDS011;52365;47.464;18.976;2023-03-23T01:27:01;15.88;;;10.48;;
65665;SDS011;52365;47.464;18.976;2023-03-23T01:27:42;15.85;;;10.20;;
65665;SDS011;52365;47.464;18.976;2023-03-23T01:28:18;16.05;;;10.77;;
65665;SDS011;52365;47.464;18.976;2023-03-23T01:28:54;15.40;;;10.88;;
65665;SDS011;52365;47.464;18.976;2023-03-23T01:29:30;17.27;;;10.93;;
65665;SDS011;52365;47.464;18.976;2023-03-23T01:30:07;16.83;;;10.55;;
65665;SDS011;52365;47.464;18.976;2023-03-23T01:30:44;16.98;;;10.63;;
65665;SDS011;52365;47.464;18.976;2023-03-23T01:31:22;17.02;;;10.80;;
65665;SDS011;52365;47.464;18.976;2023-03-23T01:31:59;15.75;;;10.32;;
65665;SDS011;52365;47.464;18.976;2023-03-23T01:32:35;16.48;;;11.15;;
65665;SDS011;52365;47.464;18.976;2023-03-23T01:33:11;15.55;;;10.55;;
65665;SDS011;52365;47.464;18.976;2023-03-23T01:33:48;17.52;;;11.20;;
65665;SDS011;52365;47.464;18.976;2023-03-23T01:34:26;17.83;;;11.05;;
65665;SDS011;52365;47.464;18.976;2023-03-23T01:35:02;17.27;;;11.25;;
65665;SDS011;52365;47.464;18.976;2023-03-23T01:35:38;17.73;;;11.02;;
65665;SDS011;52365;47.464;18.976;2023-03-23T01:36:15;17.62;;;11.00;;
65665;SDS011;52365;47.464;18.976;2023-03-23T01:36:53;15.30;;;10.57;;
65665;SDS011;52365;47.464;18.976;2023-03-23T01:37:29;17.00;;;11.07;;
65665;SDS011;52365;47.464;18.976;2023-03-23T01:38:06;16.77;;;10.82;;
65665;SDS011;52365;47.464;18.976;2023-03-23T01:38:43;16.15;;;11.02;;
65665;SDS011;52365;47.464;18.976;2023-03-23T01:39:20;17.37;;;10.55;;
65665;SDS011;52365;47.464;18.976;2023-03-23T01:39:57;16.08;;;10.38;;
65665;SDS011;52365;47.464;18.976;2023-03-23T01:40:33;18.02;;;10.90;;
65665;SDS011;52365;47.464;18.976;2023-03-23T01:41:09;18.70;;;11.00;;
65665;SDS011;52365;47.464;18.976;2023-03-23T01:41:46;16.12;;;10.38;;
65665;SDS011;52365;47.464;18.976;2023-03-23T01:42:29;15.52;;;10.38;;
65665;SDS011;52365;47.464;18.976;2023-03-23T01:43:10;16.95;;;10.88;;
65665;SDS011;52365;47.464;18.976;2023-03-23T01:44:59;17.70;;;11.10;;
65665;SDS011;52365;47.464;18.976;2023-03-23T01:45:31;18.70;;;11.65;;
65665;SDS011;52365;47.464;18.976;2023-03-23T01:46:10;16.67;;;11.30;;
65665;SDS011;52365;47.464;18.976;2023-03-23T01:46:46;18.50;;;11.23;;
65665;SDS011;52365;47.464;18.976;2023-03-23T01:47:22;15.82;;;10.80;;
65665;SDS011;52365;47.464;18.976;2023-03-23T01:48:00;17.75;;;10.88;;
65665;SDS011;52365;47.464;18.976;2023-03-23T01:48:39;15.13;;;10.20;;
65665;SDS011;52365;47.464;18.976;2023-03-23T01:49:19;17.08;;;11.32;;
65665;SDS011;52365;47.464;18.976;2023-03-23T01:50:02;18.02;;;11.40;;
65665;SDS011;52365;47.464;18.976;2023-03-23T01:51:29;19.23;;;11.57;;
65665;SDS011;52365;47.464;18.976;2023-03-23T01:52:07;19.12;;;11.20;;
65665;SDS011;52365;47.464;18.976;2023-03-23T01:52:59;18.08;;;10.43;;
65665;SDS011;52365;47.464;18.976;2023-03-23T01:53:40;15.48;;;10.38;;
65665;SDS011;52365;47.464;18.976;2023-03-23T01:54:21;18.42;;;11.40;;
65665;SDS011;52365;47.464;18.976;2023-03-23T01:54:59;18.35;;;11.65;;
65665;SDS011;52365;47.464;18.976;2023-03-23T01:55:36;19.02;;;11.95;;
65665;SDS011;52365;47.464;18.976;2023-03-23T01:56:16;19.75;;;11.57;;
65665;SDS011;52365;47.464;18.976;2023-03-23T01:56:59;18.00;;;10.95;;
65665;SDS011;52365;47.464;18.976;2023-03-23T01:57:37;18.23;;;10.70;;
65665;SDS011;52365;47.464;18.976;2023-03-23T01:58:14;16.85;;;11.02;;
65665;SDS011;52365;47.464;18.976;2023-03-23T01:58:52;16.65;;;10.80;;
65665;SDS011;52365;47.464;18.976;2023-03-23T01:59:30;16.58;;;10.40;;
65665;SDS011;52365;47.464;18.976;2023-03-23T02:00:09;16.52;;;10.75;;
65665;SDS011;52365;47.464;18.976;2023-03-23T02:00:52;16.37;;;10.70;;
65665;SDS011;52365;47.464;18.976;2023-03-23T02:01:30;17.95;;;11.52;;
65665;SDS011;52365;47.464;18.976;2023-03-23T02:02:12;19.12;;;11.50;;
65665;SDS011;52365;47.464;18.976;2023-03-23T02:02:49;19.85;;;11.23;;
65665;SDS011;52365;47.464;18.976;2023-03-23T02:03:26;17.98;;;11.63;;
65665;SDS011;52365;47.464;18.976;2023-03-23T02:04:04;16.00;;;10.63;;
65665;SDS011;52365;47.464;18.976;2023-03-23T02:04:41;18.55;;;11.20;;
65665;SDS011;52365;47.464;18.976;2023-03-23T02:05:24;18.95;;;11.00;;
65665;SDS011;52365;47.464;18.976;2023-03-23T02:06:07;18.67;;;11.23;;
65665;SDS011;52365;47.464;18.976;2023-03-23T02:06:43;17.90;;;11.35;;
65665;SDS011;52365;47.464;18.976;2023-03-23T02:07:20;19.40;;;11.85;;
65665;SDS011;52365;47.464;18.976;2023-03-23T02:07:58;17.40;;;11.43;;
65665;SDS011;52365;47.464;18.976;2023-03-23T02:08:38;16.92;;;10.98;;
65665;SDS011;52365;47.464;18.976;2023-03-23T02:09:16;17.35;;;11.45;;
65665;SDS011;52365;47.464;18.976;2023-03-23T02:09:53;17.80;;;11.10;;
65665;SDS011;52365;47.464;18.976;2023-03-23T02:10:30;20.08;;;11.38;;
65665;SDS011;52365;47.464;18.976;2023-03-23T02:11:13;18.05;;;11.12;;
65665;SDS011;52365;47.464;18.976;2023-03-23T02:11:51;17.58;;;10.90;;
65665;SDS011;52365;47.464;18.976;2023-03-23T02:12:30;16.40;;;10.90;;
65665;SDS011;52365;47.464;18.976;2023-03-23T02:13:07;17.42;;;10.77;;
65665;SDS011;52365;47.464;18.976;2023-03-23T02:13:45;16.85;;;10.95;;
65665;SDS011;52365;47.464;18.976;2023-03-23T02:14:23;16.58;;;10.77;;
65665;SDS011;52365;47.464;18.976;2023-03-23T02:15:01;17.33;;;10.32;;
65665;SDS011;52365;47.464;18.976;2023-03-23T02:15:45;18.08;;;11.15;;
65665;SDS011;52365;47.464;18.976;2023-03-23T02:23:24;17.65;;;10.93;;
65665;SDS011;52365;47.464;18.976;2023-03-23T02:27:00;16.98;;;10.48;;
65665;SDS011;52365;47.464;18.976;2023-03-23T02:31:42;19.90;;;12.85;;
65665;SDS011;52365;47.464;18.976;2023-03-23T02:34:30;16.87;;;9.90;;
65665;SDS011;52365;47.464;18.976;2023-03-23T02:35:15;16.15;;;9.63;;
65665;SDS011;52365;47.464;18.976;2023-03-23T02:36:10;15.82;;;8.93;;
65665;SDS011;52365;47.464;18.976;2023-03-23T02:36:49;15.90;;;9.18;;
65665;SDS011;52365;47.464;18.976;2023-03-23T02:38:18;15.20;;;8.35;;
65665;SDS011;52365;47.464;18.976;2023-03-23T02:39:08;14.20;;;8.35;;
65665;SDS011;52365;47.464;18.976;2023-03-23T02:39:52;14.70;;;8.70;;
65665;SDS011;52365;47.464;18.976;2023-03-23T02:40:44;15.38;;;9.20;;
65665;SDS011;52365;47.464;18.976;2023-03-23T02:41:24;14.57;;;8.60;;
65665;SDS011;52365;47.464;18.976;2023-03-23T02:42:05;15.07;;;8.40;;
65665;SDS011;52365;47.464;18.976;2023-03-23T02:42:43;15.65;;;8.85;;
65665;SDS011;52365;47.464;18.976;2023-03-23T02:43:26;15.00;;;9.05;;
65665;SDS011;52365;47.464;18.976;2023-03-23T02:44:05;14.93;;;8.65;;
65665;SDS011;52365;47.464;18.976;2023-03-23T02:44:44;12.27;;;8.25;;
65665;SDS011;52365;47.464;18.976;2023-03-23T02:45:22;15.50;;;8.98;;
65665;SDS011;52365;47.464;18.976;2023-03-23T02:46:01;15.88;;;8.88;;
65665;SDS011;52365;47.464;18.976;2023-03-23T02:46:42;13.25;;;8.32;;
65665;SDS011;52365;47.464;18.976;2023-03-23T02:47:21;14.23;;;8.50;;
65665;SDS011;52365;47.464;18.976;2023-03-23T02:47:59;12.98;;;7.80;;
65665;SDS011;52365;47.464;18.976;2023-03-23T02:48:38;16.62;;;8.32;;
65665;SDS011;52365;47.464;18.976;2023-03-23T02:49:16;14.50;;;8.60;;
65665;SDS011;52365;47.464;18.976;2023-03-23T02:49:54;13.93;;;8.70;;
65665;SDS011;52365;47.464;18.976;2023-03-23T02:50:32;13.10;;;7.90;;
65665;SDS011;52365;47.464;18.976;2023-03-23T02:51:09;14.60;;;8.77;;
65665;SDS011;52365;47.464;18.976;2023-03-23T02:51:47;13.07;;;8.55;;
65665;SDS011;52365;47.464;18.976;2023-03-23T02:52:26;14.43;;;8.35;;
65665;SDS011;52365;47.464;18.976;2023-03-23T02:53:06;13.27;;;8.73;;
65665;SDS011;52365;47.464;18.976;2023-03-23T02:53:44;13.85;;;8.48;;
65665;SDS011;52365;47.464;18.976;2023-03-23T02:54:22;14.73;;;8.77;;
65665;SDS011;52365;47.464;18.976;2023-03-23T02:55:01;15.43;;;8.40;;
65665;SDS011;52365;47.464;18.976;2023-03-23T02:55:39;11.27;;;7.57;;
65665;SDS011;52365;47.464;18.976;2023-03-23T02:56:18;14.85;;;8.15;;
65665;SDS011;52365;47.464;18.976;2023-03-23T02:56:57;13.52;;;8.30;;
65665;SDS011;52365;47.464;18.976;2023-03-23T02:57:33;12.85;;;7.95;;
65665;SDS011;52365;47.464;18.976;2023-03-23T02:58:13;13.20;;;7.80;;
65665;SDS011;52365;47.464;18.976;2023-03-23T02:58:49;12.55;;;7.85;;
65665;SDS011;52365;47.464;18.976;2023-03-23T02:59:25;13.70;;;8.25;;
65665;SDS011;52365;47.464;18.976;2023-03-23T03:00:01;12.32;;;8.18;;
65665;SDS011;52365;47.464;18.976;2023-03-23T03:00:39;11.82;;;7.50;;
65665;SDS011;52365;47.464;18.976;2023-03-23T03:02:21;11.68;;;7.47;;
65665;SDS011;52365;47.464;18.976;2023-03-23T03:03:02;13.70;;;8.52;;
65665;SDS011;52365;47.464;18.976;2023-03-23T03:03:40;11.70;;;7.57;;
65665;SDS011;52365;47.464;18.976;2023-03-23T03:04:17;11.20;;;7.50;;
65665;SDS011;52365;47.464;18.976;2023-03-23T03:06:11;13.23;;;8.00;;
65665;SDS011;52365;47.464;18.976;2023-03-23T03:07:15;13.43;;;7.65;;
65665;SDS011;52365;47.464;18.976;2023-03-23T03:08:45;13.13;;;7.82;;
65665;SDS011;52365;47.464;18.976;2023-03-23T03:09:51;16.08;;;8.70;;
65665;SDS011;52365;47.464;18.976;2023-03-23T03:10:49;15.20;;;8.00;;
65665;SDS011;52365;47.464;18.976;2023-03-23T03:11:26;14.27;;;8.07;;
65665;SDS011;52365;47.464;18.976;2023-03-23T03:12:04;12.55;;;7.68;;
65665;SDS011;52365;47.464;18.976;2023-03-23T03:13:59;13.15;;;8.43;;
65665;SDS011;52365;47.464;18.976;2023-03-23T03:14:58;14.27;;;7.72;;
65665;SDS011;52365;47.464;18.976;2023-03-23T03:19:54;12.52;;;7.75;;
65665;SDS011;52365;47.464;18.976;2023-03-23T03:20:35;13.05;;;8.02;;
65665;SDS011;52365;47.464;18.976;2023-03-23T03:21:16;12.90;;;8.10;;
65665;SDS011;52365;47.464;18.976;2023-03-23T03:22:01;13.25;;;7.85;;
65665;SDS011;52365;47.464;18.976;2023-03-23T03:22:38;12.40;;;7.60;;
65665;SDS011;52365;47.464;18.976;2023-03-23T03:23:20;12.13;;;7.43;;
65665;SDS011;52365;47.464;18.976;2023-03-23T03:23:58;12.43;;;7.68;;
65665;SDS011;52365;47.464;18.976;2023-03-23T03:24:37;11.73;;;7.50;;
65665;SDS011;52365;47.464;18.976;2023-03-23T03:25:14;13.02;;;8.10;;
65665;SDS011;52365;47.464;18.976;2023-03-23T03:25:53;12.93;;;8.20;;
65665;SDS011;52365;47.464;18.976;2023-03-23T03:26:33;12.80;;;8.13;;
65665;SDS011;52365;47.464;18.976;2023-03-23T03:27:11;12.70;;;7.87;;
65665;SDS011;52365;47.464;18.976;2023-03-23T03:27:52;12.40;;;7.68;;
65665;SDS011;52365;47.464;18.976;2023-03-23T03:28:30;13.73;;;8.25;;
65665;SDS011;52365;47.464;18.976;2023-03-23T03:29:08;13.32;;;8.80;;
65665;SDS011;52365;47.464;18.976;2023-03-23T03:29:45;13.30;;;8.15;;
65665;SDS011;52365;47.464;18.976;2023-03-23T03:30:26;14.07;;;7.75;;
65665;SDS011;52365;47.464;18.976;2023-03-23T03:31:07;12.37;;;8.25;;
65665;SDS011;52365;47.464;18.976;2023-03-23T03:31:44;13.48;;;8.00;;
65665;SDS011;52365;47.464;18.976;2023-03-23T03:32:24;14.57;;;9.00;;
65665;SDS011;52365;47.464;18.976;2023-03-23T03:33:06;13.82;;;8.68;;
65665;SDS011;52365;47.464;18.976;2023-03-23T03:33:42;13.45;;;8.80;;
65665;SDS011;52365;47.464;18.976;2023-03-23T03:34:19;14.52;;;8.57;;
65665;SDS011;52365;47.464;18.976;2023-03-23T03:34:55;13.95;;;8.82;;
65665;SDS011;52365;47.464;18.976;2023-03-23T03:35:31;13.27;;;8.73;;
65665;SDS011;52365;47.464;18.976;2023-03-23T03:36:15;13.18;;;9.00;;
65665;SDS011;52365;47.464;18.976;2023-03-23T03:36:54;13.50;;;8.68;;
65665;SDS011;52365;47.464;18.976;2023-03-23T03:37:35;14.55;;;8.80;;
65665;SDS011;52365;47.464;18.976;2023-03-23T03:38:13;16.12;;;9.52;;
65665;SDS011;52365;47.464;18.976;2023-03-23T03:38:50;13.80;;;9.30;;
65665;SDS011;52365;47.464;18.976;2023-03-23T03:39:27;16.25;;;10.77;;
65665;SDS011;52365;47.464;18.976;2023-03-23T03:40:07;19.00;;;11.10;;
65665;SDS011;52365;47.464;18.976;2023-03-23T03:40:49;16.62;;;11.77;;
65665;SDS011;52365;47.464;18.976;2023-03-23T03:41:25;19.52;;;12.20;;
65665;SDS011;52365;47.464;18.976;2023-03-23T03:42:01;18.17;;;10.77;;
65665;SDS011;52365;47.464;18.976;2023-03-23T03:42:38;14.15;;;9.23;;
65665;SDS011;52365;47.464;18.976;2023-03-23T03:43:15;15.25;;;9.48;;
65665;SDS011;52365;47.464;18.976;2023-03-23T03:43:52;14.70;;;8.80;;
65665;SDS011;52365;47.464;18.976;2023-03-23T03:44:28;14.02;;;9.00;;
65665;SDS011;52365;47.464;18.976;2023-03-23T03:45:05;15.73;;;10.27;;
65665;SDS011;52365;47.464;18.976;2023-03-23T03:45:42;18.83;;;11.57;;
65665;SDS011;52365;47.464;18.976;2023-03-23T03:46:19;18.65;;;10.93;;
65665;SDS011;52365;47.464;18.976;2023-03-23T03:46:55;15.00;;;9.15;;
65665;SDS011;52365;47.464;18.976;2023-03-23T03:47:31;15.68;;;9.77;;
65665;SDS011;52365;47.464;18.976;2023-03-23T03:48:07;15.75;;;9.48;;
65665;SDS011;52365;47.464;18.976;2023-03-23T03:48:44;17.40;;;9.80;;
65665;SDS011;52365;47.464;18.976;2023-03-23T03:49:20;14.25;;;9.10;;
65665;SDS011;52365;47.464;18.976;2023-03-23T03:49:56;14.57;;;9.20;;
65665;SDS011;52365;47.464;18.976;2023-03-23T03:50:32;13.75;;;9.18;;
65665;SDS011;52365;47.464;18.976;2023-03-23T03:51:08;15.30;;;10.00;;
65665;SDS011;52365;47.464;18.976;2023-03-23T03:51:44;16.25;;;9.95;;
65665;SDS011;52365;47.464;18.976;2023-03-23T03:52:20;15.00;;;10.05;;
65665;SDS011;52365;47.464;18.976;2023-03-23T03:52:57;18.12;;;11.40;;
65665;SDS011;52365;47.464;18.976;2023-03-23T03:53:33;17.62;;;11.70;;
65665;SDS011;52365;47.464;18.976;2023-03-23T03:54:09;18.02;;;11.30;;
65665;SDS011;52365;47.464;18.976;2023-03-23T03:54:46;18.70;;;12.63;;
65665;SDS011;52365;47.464;18.976;2023-03-23T03:55:22;19.40;;;11.70;;
65665;SDS011;52365;47.464;18.976;2023-03-23T03:55:58;16.33;;;10.60;;
65665;SDS011;52365;47.464;18.976;2023-03-23T03:56:35;16.08;;;10.20;;
65665;SDS011;52365;47.464;18.976;2023-03-23T03:57:15;17.55;;;10.85;;
65665;SDS011;52365;47.464;18.976;2023-03-23T03:57:53;17.12;;;10.68;;
65665;SDS011;52365;47.464;18.976;2023-03-23T03:58:30;17.27;;;11.10;;
65665;SDS011;52365;47.464;18.976;2023-03-23T03:59:07;17.33;;;11.07;;
65665;SDS011;52365;47.464;18.976;2023-03-23T03:59:45;17.23;;;11.20;;
65665;SDS011;52365;47.464;18.976;2023-03-23T04:00:21;19.02;;;12.15;;
65665;SDS011;52365;47.464;18.976;2023-03-23T04:00:59;19.90;;;12.37;;
65665;SDS011;52365;47.464;18.976;2023-03-23T04:01:36;19.92;;;12.00;;
65665;SDS011;52365;47.464;18.976;2023-03-23T04:02:13;22.25;;;12.93;;
65665;SDS011;52365;47.464;18.976;2023-03-23T04:02:52;21.23;;;12.27;;
65665;SDS011;52365;47.464;18.976;2023-03-23T04:03:29;18.70;;;11.12;;
65665;SDS011;52365;47.464;18.976;2023-03-23T04:04:05;17.17;;;11.18;;
65665;SDS011;52365;47.464;18.976;2023-03-23T04:04:42;17.87;;;10.65;;
65665;SDS011;52365;47.464;18.976;2023-03-23T04:05:19;18.62;;;11.43;;
65665;SDS011;52365;47.464;18.976;2023-03-23T04:05:55;20.95;;;11.70;;
65665;SDS011;52365;47.464;18.976;2023-03-23T04:06:32;18.30;;;11.52;;
65665;SDS011;52365;47.464;18.976;2023-03-23T04:07:11;21.00;;;11.80;;
65665;SDS011;52365;47.464;18.976;2023-03-23T04:07:49;22.30;;;12.23;;
65665;SDS011;52365;47.464;18.976;2023-03-23T04:08:27;18.27;;;11.85;;
65665;SDS011;52365;47.464;18.976;2023-03-23T04:09:03;19.17;;;11.88;;
65665;SDS011;52365;47.464;18.976;2023-03-23T04:09:44;18.25;;;11.73;;
65665;SDS011;52365;47.464;18.976;2023-03-23T04:10:21;19.08;;;11.98;;
65665;SDS011;52365;47.464;18.976;2023-03-23T04:10:58;20.08;;;11.73;;
65665;SDS011;52365;47.464;18.976;2023-03-23T04:11:34;17.67;;;11.98;;